Forside
METAR-TAF:

METAR-TAF

Lufthavne :

Watertown Municipal Airport

Watertown, Wisconsin, USA

Breddekreds: 43-10N, længdekreds: 088-43W, højde: 254 m

Aktuelle vejr

Denne rapport blev lavet for 18 minutter siden, kl. 20:55 UTC
Vind 5 kt fra vest
Temperatur 14°C
Fugtighed 41%
Tryk 1020 hPa
Sigt: 16.1 km
Spredte skyer i en højde af 6000 ft

METAR: KRYV 052055Z AUTO 26005KT 10SM SCT060 14/01 A3011 RMK AO2 T01400014

Tid: 16:13 (21:13 UTC)


TAF: fraværende

Vejrobservationer og prognoser fra mere end 4000 lufthavne (METAR og TAF).

De gule og røde prikker repræsenterer de meteorologiske stationer.

Flyt musen over at se navnet på stationen.

Så klik over at se vejr observationer og prognoser.

At skifte det kort: Klik på de grønne knapper med et sort kors for at zoome ind; på den grønne knap med en bindestreg for at zoome ud; eller på de grønne pile for tilstødende kort.


METAR-TAF: